Time;durP1;ratioP1;P1;durP2;ratioP2;P2;SDS_P1;SDS_P2;PMS_P1;PMS_P2;Temp;Humidity;BMP_temperature;BMP_pressure;BME280_temperature;BME280_humidity;BME280_pressure;Samples;Min_cycle;Max_cycle;Signal;HPM_P1;HPM_P2
2024/01/04 00:01:22;;;;;;;4.13;1.20;;;;;;;18.34;54.99;95488.16;10392697;28;20292;-29
2024/01/04 00:06:23;;;;;;;5.07;1.50;;;;;;;18.44;54.87;95492.19;10408311;28;20049;-30
2024/01/04 00:11:23;;;;;;;3.47;1.23;;;;;;;18.44;54.87;95492.19;10394392;28;20042;-29
2024/01/04 00:16:23;;;;;;;2.13;1.13;;;;;;;18.44;54.83;95476.97;10406143;28;20041;-30
2024/01/04 00:21:24;;;;;;;2.17;1.00;;;;;;;18.45;54.78;95486.25;10394712;28;20571;-30
2024/01/04 00:26:24;;;;;;;2.03;0.90;;;;;;;18.44;55.08;95487.13;10393568;28;20172;-29
2024/01/04 00:31:25;;;;;;;3.80;1.20;;;;;;;18.33;55.09;95468.75;10399261;28;20037;-30
2024/01/04 00:36:25;;;;;;;3.00;0.90;;;;;;;18.42;55.01;95498.97;10403606;28;20057;-29
2024/01/04 00:41:26;;;;;;;2.23;1.10;;;;;;;18.39;55.18;95493.94;10393159;28;20021;-30
2024/01/04 00:46:26;;;;;;;3.77;1.00;;;;;;;18.43;55.10;95506.53;10394292;28;20087;-29
2024/01/04 00:51:26;;;;;;;2.17;1.10;;;;;;;18.40;55.12;95495.66;10391799;28;20344;-29
2024/01/04 00:56:34;;;;;;;2.20;0.90;;;;;;;18.39;54.79;95510.00;10406436;28;20072;-29
2024/01/04 01:01:34;;;;;;;3.15;1.08;;;;;;;18.39;54.87;95488.88;10397554;28;20055;-30
2024/01/04 01:06:35;;;;;;;2.23;1.30;;;;;;;18.40;55.08;95506.59;10390872;28;20040;-30
2024/01/04 01:11:35;;;;;;;2.43;0.83;;;;;;;18.41;55.00;95507.47;10384962;28;20041;-30
2024/01/04 01:16:35;;;;;;;2.77;0.90;;;;;;;18.39;54.92;95499.03;10405612;28;20036;-31
2024/01/04 01:21:36;;;;;;;3.53;1.10;;;;;;;18.40;55.01;95505.78;10386656;28;20338;-29
2024/01/04 01:26:36;;;;;;;2.97;1.03;;;;;;;18.40;55.03;95518.47;10402961;28;20159;-29
2024/01/04 01:31:41;;;;;;;2.50;0.90;;;;;;;18.38;54.95;95507.50;10398269;28;20030;-29
2024/01/04 01:36:42;;;;;;;2.80;0.80;;;;;;;18.34;55.17;95506.72;10397580;28;20037;-29
2024/01/04 01:41:42;;;;;;;4.43;1.25;;;;;;;18.35;55.22;95528.66;10396848;28;20326;-30
2024/01/04 01:46:43;;;;;;;2.42;0.90;;;;;;;18.36;55.15;95542.16;10397037;28;20412;-29
2024/01/04 01:51:44;;;;;;;2.50;0.95;;;;;;;18.35;55.26;95545.56;10393319;28;20062;-34
2024/01/04 01:56:45;;;;;;;2.95;0.80;;;;;;;18.36;55.26;95547.22;10391418;28;20030;-30
2024/01/04 02:01:45;;;;;;;2.35;1.55;;;;;;;18.35;54.93;95553.16;10396271;28;20125;-31
2024/01/04 02:06:46;;;;;;;2.40;0.80;;;;;;;18.35;55.13;95574.25;10401949;28;20044;-30
2024/01/04 02:11:46;;;;;;;2.35;0.90;;;;;;;18.34;55.12;95576.84;10398785;28;20561;-29
2024/01/04 02:16:47;;;;;;;2.20;0.70;;;;;;;18.34;55.34;95557.38;10417620;28;20033;-29
2024/01/04 02:21:47;;;;;;;2.10;0.90;;;;;;;18.34;55.15;95579.38;10400919;28;20033;-30
2024/01/04 02:26:47;;;;;;;3.03;0.80;;;;;;;18.33;55.20;95580.25;10400611;28;20295;-30
2024/01/04 02:31:51;;;;;;;1.20;0.60;;;;;;;18.31;55.45;95587.00;10392859;28;20099;-29
2024/01/04 02:36:51;;;;;;;2.72;0.90;;;;;;;18.31;55.38;95589.53;10399196;28;20132;-30
2024/01/04 02:41:51;;;;;;;1.00;0.70;;;;;;;18.32;55.27;95588.69;10400038;28;20579;-29
2024/01/04 02:46:52;;;;;;;1.50;0.80;;;;;;;18.32;55.36;95594.59;10400291;28;20428;-30
2024/01/04 02:51:52;;;;;;;1.93;0.93;;;;;;;18.32;55.21;95609.78;10400329;28;20689;-30
2024/01/04 02:56:52;;;;;;;1.03;0.50;;;;;;;18.27;55.29;95615.78;10394878;28;20526;-29
2024/01/04 03:01:53;;;;;;;3.40;1.10;;;;;;;18.31;55.38;95614.88;10400164;28;20112;-30
2024/01/04 03:06:53;;;;;;;0.87;0.60;;;;;;;18.26;55.23;95621.69;10401179;28;20091;-30
2024/01/04 03:11:53;;;;;;;3.37;0.80;;;;;;;18.28;55.43;95623.34;10398644;28;20496;-31
2024/01/04 03:16:54;;;;;;;4.03;0.90;;;;;;;18.32;55.34;95644.44;10400733;28;20025;-30
2024/01/04 03:21:54;;;;;;;2.00;0.80;;;;;;;18.29;55.46;95645.31;10398957;28;20120;-30
2024/01/04 03:26:54;;;;;;;1.80;0.90;;;;;;;18.29;55.23;95659.63;10400680;28;20034;-30
2024/01/04 03:31:55;;;;;;;2.83;0.83;;;;;;;18.29;55.39;95664.72;10397420;28;20082;-29
2024/01/04 03:36:55;;;;;;;3.07;1.83;;;;;;;18.30;55.34;95671.47;10405527;28;20113;-31
2024/01/04 03:41:55;;;;;;;1.80;0.90;;;;;;;18.29;55.35;95688.41;10396823;28;20022;-30
2024/01/04 03:46:56;;;;;;;1.67;0.60;;;;;;;18.30;55.39;95689.22;10400910;28;20152;-31
2024/01/04 03:51:56;;;;;;;1.37;0.60;;;;;;;18.27;55.37;95677.44;10402922;28;20077;-30
2024/01/04 03:56:56;;;;;;;1.50;0.70;;;;;;;18.27;55.34;95691.78;10398534;28;20041;-30
2024/01/04 04:01:57;;;;;;;2.00;0.70;;;;;;;18.22;55.33;95683.41;10402726;28;20030;-30
2024/01/04 04:06:57;;;;;;;2.57;0.77;;;;;;;18.28;55.39;95680.78;10402258;28;20902;-30
2024/01/04 04:11:57;;;;;;;3.17;0.70;;;;;;;18.27;55.34;95692.63;10398613;28;20045;-29
2024/01/04 04:16:58;;;;;;;1.07;0.70;;;;;;;18.31;55.43;95698.47;10397390;28;20029;-30
2024/01/04 04:21:58;;;;;;;0.93;0.60;;;;;;;18.28;55.43;95703.56;10395719;28;20113;-30
2024/01/04 04:26:58;;;;;;;4.20;0.80;;;;;;;18.28;55.42;95699.34;10399305;28;20044;-30
2024/01/04 04:31:59;;;;;;;1.03;0.47;;;;;;;18.27;55.30;95714.56;10399102;28;20032;-30
2024/01/04 04:36:59;;;;;;;3.83;0.73;;;;;;;18.28;55.35;95723.84;10398261;28;20059;-30
2024/01/04 04:42:00;;;;;;;1.43;0.60;;;;;;;18.27;55.53;95717.97;10402932;28;20025;-30
2024/01/04 04:47:00;;;;;;;0.90;0.50;;;;;;;18.28;55.44;95706.97;10407338;28;20295;-29
2024/01/04 04:52:00;;;;;;;1.30;0.50;;;;;;;18.26;55.40;95713.72;10400352;28;20051;-30
2024/01/04 04:57:02;;;;;;;1.27;0.50;;;;;;;18.26;55.34;95707.84;10408809;28;20523;-28
2024/01/04 05:02:03;;;;;;;1.58;0.52;;;;;;;18.28;55.50;95713.72;10408588;28;20037;-30
2024/01/04 05:07:04;;;;;;;3.05;0.65;;;;;;;18.24;55.25;95712.09;10403256;28;20049;-29
2024/01/04 05:12:04;;;;;;;1.05;0.40;;;;;;;18.28;55.30;95731.44;10397258;28;20412;-30
2024/01/04 05:17:04;;;;;;;1.37;0.50;;;;;;;18.24;55.62;95742.50;10407442;28;20041;-30
2024/01/04 05:22:05;;;;;;;1.83;0.90;;;;;;;18.27;55.26;95777.91;10400893;28;20033;-29
2024/01/04 05:27:06;;;;;;;1.08;0.47;;;;;;;18.26;55.87;95773.72;10403050;28;20043;-29
2024/01/04 05:32:06;;;;;;;2.33;0.63;;;;;;;18.29;55.53;95788.84;10393785;28;20395;-29
2024/01/04 05:37:07;;;;;;;1.25;0.65;;;;;;;18.29;55.30;95806.59;10394580;28;20573;-30
2024/01/04 05:42:07;;;;;;;2.23;0.83;;;;;;;18.18;55.47;95780.56;10388841;28;20041;-29
2024/01/04 05:47:08;;;;;;;1.30;0.73;;;;;;;18.26;55.42;95799.03;10397571;28;20034;-29
2024/01/04 05:52:08;;;;;;;1.05;0.47;;;;;;;18.27;55.46;95808.31;10389365;28;20661;-29
2024/01/04 05:57:08;;;;;;;1.57;0.60;;;;;;;18.29;55.52;95809.13;10394008;28;20048;-30
2024/01/04 06:02:09;;;;;;;3.80;0.70;;;;;;;18.28;55.47;95836.19;10393715;28;20060;-29
2024/01/04 06:07:09;;;;;;;1.10;0.60;;;;;;;18.27;55.55;95826.91;10392468;28;20654;-29
2024/01/04 06:12:09;;;;;;;3.10;0.70;;;;;;;18.27;55.54;95820.97;10397526;28;20123;-29
2024/01/04 06:17:10;;;;;;;0.82;0.43;;;;;;;18.29;55.48;95825.22;10399090;28;20034;-29
2024/01/04 06:22:10;;;;;;;1.88;0.85;;;;;;;18.31;55.40;95822.63;10396117;28;20116;-29
2024/01/04 06:27:10;;;;;;;0.77;0.50;;;;;;;18.27;55.42;95846.31;10396725;28;20048;-29
2024/01/04 06:32:11;;;;;;;0.80;0.50;;;;;;;18.27;55.88;95838.72;10394848;28;20045;-30
2024/01/04 06:37:13;;;;;;;3.07;1.00;;;;;;;18.27;55.71;95843.78;10395253;28;20529;-31
2024/01/04 06:42:14;;;;;;;5.72;0.73;;;;;;;18.26;56.15;95844.66;10354455;28;20042;-29
2024/01/04 06:47:15;;;;;;;2.45;0.60;;;;;;;18.25;55.80;95855.66;10345017;28;21289;-30
2024/01/04 06:52:15;;;;;;;2.53;0.60;;;;;;;18.24;56.61;95857.31;10342482;28;20104;-29
2024/01/04 06:57:16;;;;;;;3.70;0.73;;;;;;;18.22;56.06;95861.59;10352610;28;20877;-30
2024/01/04 07:02:16;;;;;;;3.13;0.95;;;;;;;18.26;55.79;95868.28;10367362;28;20292;-29
2024/01/04 07:07:16;;;;;;;1.90;0.73;;;;;;;18.28;56.26;95863.19;10397404;28;20078;-30
2024/01/04 07:12:17;;;;;;;6.70;0.80;;;;;;;18.25;56.62;95886.88;10396513;28;20038;-29
2024/01/04 07:17:17;;;;;;;3.13;1.25;;;;;;;18.11;56.50;95865.09;10394209;28;20102;-30
2024/01/04 07:22:19;;;;;;;7.05;0.93;;;;;;;18.26;56.30;95896.13;10390185;28;20112;-29
2024/01/04 07:27:20;;;;;;;6.47;2.17;;;;;;;18.30;56.00;95890.22;10398448;28;20048;-30
2024/01/04 07:32:21;;;;;;;6.03;3.33;;;;;;;18.34;56.45;95888.50;10395700;28;20029;-29
2024/01/04 07:37:21;;;;;;;7.68;3.42;;;;;;;18.35;56.42;95907.91;10393049;28;20061;-29
2024/01/04 07:42:22;;;;;;;5.80;3.40;;;;;;;18.32;56.37;95913.84;10395071;28;20033;-29
2024/01/04 07:47:22;;;;;;;6.35;3.40;;;;;;;18.33;56.41;95929.91;10390827;28;20569;-29
2024/01/04 07:52:22;;;;;;;7.90;3.13;;;;;;;18.29;56.46;95926.56;10394872;28;20038;-33
2024/01/04 07:57:23;;;;;;;5.90;3.23;;;;;;;18.32;56.29;95939.19;10395404;28;20052;-29
2024/01/04 08:02:25;;;;;;;4.07;3.13;;;;;;;18.29;56.14;95934.16;10399347;28;20033;-29
2024/01/04 08:07:26;;;;;;;6.70;3.15;;;;;;;18.28;55.84;95934.13;10398694;28;20030;-29
2024/01/04 08:12:26;;;;;;;5.72;3.28;;;;;;;18.29;56.72;95925.69;10402200;28;20088;-29
2024/01/04 08:17:27;;;;;;;4.93;2.67;;;;;;;18.27;56.07;95940.91;10401609;28;20091;-29
2024/01/04 08:22:27;;;;;;;6.67;2.60;;;;;;;18.25;56.11;95937.53;10398695;28;20025;-29
2024/01/04 08:27:27;;;;;;;4.90;2.73;;;;;;;18.31;55.96;95936.66;10400313;28;20106;-30
2024/01/04 08:32:28;;;;;;;8.30;2.40;;;;;;;18.31;56.59;95936.66;10401183;28;20096;-29
2024/01/04 08:37:28;;;;;;;6.50;2.53;;;;;;;18.29;55.74;95936.69;10401164;28;20045;-30
2024/01/04 08:42:29;;;;;;;6.17;3.20;;;;;;;18.29;57.39;95959.50;10395189;28;20295;-30
2024/01/04 08:47:29;;;;;;;6.53;2.37;;;;;;;18.38;56.52;95966.13;10397425;28;20307;-29
2024/01/04 08:52:30;;;;;;;4.57;2.50;;;;;;;18.43;56.32;95967.75;10393043;28;20052;-29
2024/01/04 08:57:32;;;;;;;7.15;2.80;;;;;;;18.45;55.98;95977.88;10397283;28;20045;-30
2024/01/04 09:02:32;;;;;;;5.95;2.40;;;;;;;18.31;56.81;95979.72;10398951;28;20416;-30
2024/01/04 09:07:33;;;;;;;6.47;2.73;;;;;;;18.41;56.34;95981.34;10399157;28;20038;-29
2024/01/04 09:12:33;;;;;;;4.55;2.30;;;;;;;18.36;56.94;95978.00;10395528;28;20088;-30
2024/01/04 09:17:34;;;;;;;7.00;3.30;;;;;;;18.35;57.14;95984.75;10398352;28;20048;-30
2024/01/04 09:22:34;;;;;;;7.53;3.05;;;;;;;18.30;57.32;95998.31;10398252;28;20477;-29
2024/01/04 09:27:35;;;;;;;7.03;2.53;;;;;;;18.35;56.96;96004.19;10401447;28;20038;-30
2024/01/04 09:32:35;;;;;;;2.90;2.00;;;;;;;18.35;56.98;95997.41;10398468;28;20099;-30
2024/01/04 09:37:36;;;;;;;3.97;2.17;;;;;;;18.34;57.25;96015.19;10396571;28;20037;-29
2024/01/04 09:42:39;;;;;;;4.40;2.07;;;;;;;18.39;57.09;96011.75;10396841;28;20061;-29
2024/01/04 09:47:42;;;;;;;8.15;2.65;;;;;;;18.38;56.94;96004.16;10395930;28;20437;-30
2024/01/04 09:52:44;;;;;;;7.97;2.63;;;;;;;18.36;57.06;96016.00;10401770;28;20410;-29
2024/01/04 09:57:45;;;;;;;5.15;2.55;;;;;;;18.33;56.90;96024.47;10394011;28;20116;-30
2024/01/04 10:02:45;;;;;;;2.85;1.88;;;;;;;18.37;56.53;96032.88;10401544;28;20092;-29
2024/01/04 10:08:19;;;;;;;4.10;2.03;;;;;;;18.33;56.78;96031.25;10393282;28;20029;-29
2024/01/04 10:13:19;;;;;;;3.10;1.98;;;;;;;18.31;56.73;96033.78;10397525;28;20734;-31
2024/01/04 10:18:20;;;;;;;4.13;2.10;;;;;;;18.31;56.79;96015.22;10397185;28;20029;-29
2024/01/04 10:23:21;;;;;;;4.50;2.42;;;;;;;18.29;56.75;96027.03;10399205;28;20033;-29
2024/01/04 10:28:23;;;;;;;4.07;2.30;;;;;;;18.25;56.64;96022.84;10396573;28;20052;-31
2024/01/04 10:33:23;;;;;;;5.00;2.70;;;;;;;18.29;56.77;96032.09;10393459;28;20033;-30
2024/01/04 10:38:25;;;;;;;7.40;2.03;;;;;;;18.31;56.67;96043.94;10398148;28;20045;-29
2024/01/04 10:43:25;;;;;;;5.97;2.78;;;;;;;18.30;56.50;96041.41;10389059;28;20079;-29
2024/01/04 10:48:25;;;;;;;5.13;2.00;;;;;;;18.32;56.70;96044.78;10392990;28;20111;-31
2024/01/04 10:53:30;;;;;;;4.27;2.30;;;;;;;18.32;56.66;96057.47;10391252;28;20528;-29
2024/01/04 10:58:33;;;;;;;3.88;2.05;;;;;;;18.35;56.25;96044.75;10393059;28;20805;-28
2024/01/04 11:03:33;;;;;;;9.48;2.40;;;;;;;18.35;56.47;96062.47;10387036;28;20037;-29
2024/01/04 11:08:35;;;;;;;4.70;2.17;;;;;;;18.32;56.65;96039.72;10400248;28;20037;-29
2024/01/04 11:13:36;;;;;;;5.78;2.15;;;;;;;18.32;57.28;96043.06;10383317;28;20057;-29
2024/01/04 11:18:48;;;;;;;3.92;2.08;;;;;;;18.35;56.78;96040.50;10393890;28;20044;-29
2024/01/04 11:24:03;;;;;;;6.57;2.10;;;;;;;18.39;56.78;96037.09;10396548;28;20107;-31
2024/01/04 11:29:09;;;;;;;2.47;1.83;;;;;;;18.38;56.78;96039.63;10393637;28;20068;-30
2024/01/04 11:34:11;;;;;;;2.67;1.80;;;;;;;18.36;56.86;96033.75;10391896;28;20042;-29
2024/01/04 11:39:12;;;;;;;3.67;1.88;;;;;;;18.34;56.76;96023.63;10395481;28;20049;-29
2024/01/04 11:44:16;;;;;;;4.63;1.90;;;;;;;18.38;56.91;96039.63;10393620;28;20057;-30
2024/01/04 11:49:19;;;;;;;2.80;1.88;;;;;;;18.35;57.24;96030.34;10402276;28;20371;-29
2024/01/04 11:54:20;;;;;;;2.50;1.92;;;;;;;18.41;56.99;96016.81;10399562;28;20112;-29
2024/01/04 11:59:30;;;;;;;5.88;2.38;;;;;;;18.41;57.07;96029.47;10405310;28;20053;-29
2024/01/04 12:04:31;;;;;;;3.75;2.35;;;;;;;18.41;57.33;96024.41;10400801;28;20037;-30
2024/01/04 12:09:31;;;;;;;4.68;2.50;;;;;;;18.37;57.33;96028.69;10391825;28;20038;-29
2024/01/04 12:14:34;;;;;;;4.30;1.87;;;;;;;18.29;56.96;96014.34;10410498;28;20041;-29
2024/01/04 12:19:34;;;;;;;3.10;1.83;;;;;;;18.38;57.10;96014.28;10395641;28;20095;-29
2024/01/04 12:24:38;;;;;;;3.90;1.90;;;;;;;18.44;56.42;96011.69;10392204;28;20540;-30
2024/01/04 12:29:39;;;;;;;3.45;1.85;;;;;;;18.53;56.09;96014.13;10410031;28;20099;-31
2024/01/04 12:34:45;;;;;;;2.45;1.77;;;;;;;18.58;54.68;95997.19;10403338;28;20451;-30
2024/01/04 12:39:45;;;;;;;3.73;1.53;;;;;;;18.57;52.23;96003.94;10391653;28;20035;-29
2024/01/04 12:44:49;;;;;;;5.18;1.98;;;;;;;18.62;54.14;95984.44;10387519;28;20036;-30
2024/01/04 12:49:56;;;;;;;2.30;1.65;;;;;;;18.62;52.14;95974.31;10389325;28;20049;-30
2024/01/04 12:54:57;;;;;;;2.00;1.35;;;;;;;18.60;53.02;95959.97;10395098;28;20040;-29
2024/01/04 12:59:57;;;;;;;2.88;1.65;;;;;;;18.60;53.18;95965.03;10398894;28;20033;-30
2024/01/04 13:04:58;;;;;;;6.07;2.00;;;;;;;18.63;53.54;95950.63;10402639;28;20112;-29
2024/01/04 13:09:58;;;;;;;3.27;1.20;;;;;;;18.24;49.34;95951.06;10390712;28;20454;-29
2024/01/04 13:14:58;;;;;;;2.83;1.23;;;;;;;18.36;48.92;95965.31;10394701;28;21567;-31
2024/01/04 13:20:00;;;;;;;3.08;1.35;;;;;;;18.44;51.84;95958.47;10386825;28;20057;-29
2024/01/04 13:25:00;;;;;;;7.10;1.77;;;;;;;18.48;49.50;95947.44;10389439;28;20052;-30
2024/01/04 13:30:00;;;;;;;4.37;1.70;;;;;;;18.36;49.31;95955.19;10405510;28;20038;-29
2024/01/04 13:35:01;;;;;;;5.07;1.20;;;;;;;18.43;47.90;95960.16;10394789;28;20835;-30
2024/01/04 13:40:02;;;;;;;6.25;1.63;;;;;;;18.43;48.01;95954.25;10373262;28;20046;-31
2024/01/04 13:45:03;;;;;;;2.22;1.40;;;;;;;18.43;48.71;95957.63;10391050;28;20051;-27
2024/01/04 13:50:04;;;;;;;6.45;1.70;;;;;;;18.40;48.11;95956.84;10398536;28;20073;-30
2024/01/04 13:55:05;;;;;;;7.47;1.33;;;;;;;18.38;48.28;95954.31;10393767;28;20133;-29
2024/01/04 14:00:08;;;;;;;4.65;1.58;;;;;;;18.38;48.67;95953.47;10406369;28;20040;-30
2024/01/04 14:05:12;;;;;;;;;;;;;;;18.38;48.77;95958.53;10398001;28;20041;-31
2024/01/04 14:10:12;;;;;;;4.93;1.38;;;;;;;18.34;49.61;95969.59;10390852;28;20447;-29
2024/01/04 14:15:13;;;;;;;4.75;1.20;;;;;;;18.37;46.48;95951.81;10378142;28;20044;-29
2024/01/04 14:20:13;;;;;;;4.07;1.93;;;;;;;18.34;47.18;95952.66;10382464;28;20124;-29
2024/01/04 14:25:14;;;;;;;3.15;1.17;;;;;;;17.97;46.80;95961.50;10395216;28;20284;-29
2024/01/04 14:30:15;;;;;;;4.18;1.27;;;;;;;18.17;47.03;95948.63;10388048;28;20379;-29
2024/01/04 14:35:15;;;;;;;5.18;1.13;;;;;;;18.19;47.00;95939.31;10380122;28;20033;-30
2024/01/04 14:40:16;;;;;;;3.00;1.23;;;;;;;18.30;48.49;95945.13;10402441;28;20044;-30
2024/01/04 14:45:17;;;;;;;4.47;1.00;;;;;;;18.29;47.95;95943.41;10396952;28;20091;-29
2024/01/04 14:50:18;;;;;;;4.95;1.48;;;;;;;17.87;45.18;95933.75;10388728;28;20100;-30
2024/01/04 14:55:25;;;;;;;5.10;1.70;;;;;;;17.70;45.14;95926.34;10396484;28;20041;-30
2024/01/04 15:00:25;;;;;;;2.10;0.90;;;;;;;18.03;46.67;95920.94;10385140;28;20124;-29
2024/01/04 15:05:26;;;;;;;4.20;1.33;;;;;;;18.16;48.20;95911.50;10391254;28;20033;-30
2024/01/04 15:10:26;;;;;;;2.93;1.50;;;;;;;18.30;47.50;95929.91;10386773;28;20039;-30
2024/01/04 15:15:29;;;;;;;2.73;0.73;;;;;;;18.34;48.09;95922.25;10392254;28;20040;-30
2024/01/04 15:20:29;;;;;;;2.70;1.15;;;;;;;18.36;47.50;95919.72;10396957;28;20051;-30
2024/01/04 15:25:29;;;;;;;3.33;1.10;;;;;;;18.35;49.48;95913.78;10393697;28;20028;-30
2024/01/04 15:30:30;;;;;;;3.93;1.40;;;;;;;18.38;48.09;95905.31;10399192;28;20026;-30
2024/01/04 15:35:31;;;;;;;2.97;1.13;;;;;;;18.39;48.90;95910.38;10386251;28;20297;-29
2024/01/04 15:40:31;;;;;;;2.23;1.00;;;;;;;18.40;50.10;95907.00;10391581;28;20120;-31
2024/01/04 15:45:31;;;;;;;3.03;1.30;;;;;;;18.34;49.58;95896.09;10380200;28;20303;-31
2024/01/04 15:50:32;;;;;;;25.97;14.70;;;;;;;17.93;46.15;95903.31;10398008;28;20037;-30
2024/01/04 15:55:33;;;;;;;9.13;4.15;;;;;;;18.19;50.66;95892.03;10403905;28;20416;-30
2024/01/04 16:00:34;;;;;;;7.18;3.83;;;;;;;18.33;51.29;95884.28;10379349;28;20033;-29
2024/01/04 16:05:34;;;;;;;3.87;2.70;;;;;;;18.39;53.19;95889.25;10391809;28;20044;-29
2024/01/04 16:10:34;;;;;;;9.57;4.23;;;;;;;18.45;53.04;95879.91;10386162;28;20038;-29
2024/01/04 16:15:35;;;;;;;11.00;3.87;;;;;;;18.46;52.68;95866.38;10385724;28;20106;-30
2024/01/04 16:20:35;;;;;;;11.00;3.67;;;;;;;18.47;52.79;95872.25;10395331;28;20041;-29
2024/01/04 16:25:35;;;;;;;6.93;3.50;;;;;;;18.43;53.36;95875.69;10388223;28;20068;-30
2024/01/04 16:30:36;;;;;;;14.93;3.43;;;;;;;18.46;53.74;95873.13;10385746;28;20034;-29
2024/01/04 16:35:38;;;;;;;9.73;3.53;;;;;;;18.45;53.98;95873.97;10397594;28;20406;-29
2024/01/04 16:40:39;;;;;;;5.25;2.65;;;;;;;18.48;53.59;95874.78;10399635;28;20112;-30
2024/01/04 16:45:39;;;;;;;9.20;3.47;;;;;;;18.49;54.04;95866.31;10395192;28;20144;-30
2024/01/04 16:50:39;;;;;;;6.80;3.73;;;;;;;18.52;54.00;95870.50;10396300;28;20029;-30
2024/01/04 16:55:40;;;;;;;7.38;3.03;;;;;;;18.46;53.48;95866.38;10397105;28;20287;-29
2024/01/04 17:00:41;;;;;;;8.10;2.70;;;;;;;18.48;52.92;95861.25;10399738;28;20049;-29
2024/01/04 17:05:42;;;;;;;9.73;3.33;;;;;;;18.58;53.06;95860.28;10398812;28;20049;-29
2024/01/04 17:10:43;;;;;;;8.60;3.00;;;;;;;18.52;55.34;95850.22;10370533;28;20429;-29
2024/01/04 17:15:43;;;;;;;5.13;2.43;;;;;;;18.49;55.68;95857.88;10385017;28;20038;-29
2024/01/04 17:20:44;;;;;;;9.25;3.83;;;;;;;18.46;56.32;95860.44;10394592;28;20029;-29
2024/01/04 17:25:44;;;;;;;6.47;2.57;;;;;;;18.54;55.24;95856.09;10397638;28;20022;-29
2024/01/04 17:30:51;;;;;;;9.35;3.30;;;;;;;18.50;56.42;95857.03;10389906;28;20117;-30
2024/01/04 17:35:53;;;;;;;10.98;2.70;;;;;;;18.44;57.04;95844.44;10389740;28;20041;-30
2024/01/04 17:40:53;;;;;;;6.40;2.70;;;;;;;18.51;56.74;95835.88;10383918;28;20092;-29
2024/01/04 17:45:53;;;;;;;6.33;2.50;;;;;;;18.38;57.13;95816.63;10387065;28;20025;-29
2024/01/04 17:50:54;;;;;;;6.37;2.80;;;;;;;18.50;57.05;95836.75;10396775;28;20037;-30
2024/01/04 17:55:54;;;;;;;8.33;2.43;;;;;;;18.49;57.24;95830.00;10395960;28;20168;-29
2024/01/04 18:00:55;;;;;;;6.67;2.40;;;;;;;18.40;54.81;95830.13;10386145;28;20299;-29
2024/01/04 18:05:55;;;;;;;7.40;2.58;;;;;;;18.40;57.36;95810.69;10392355;28;20116;-30
2024/01/04 18:10:56;;;;;;;4.75;2.60;;;;;;;18.47;57.41;95822.41;10391125;28;20623;-29
2024/01/04 18:15:56;;;;;;;12.88;2.40;;;;;;;18.44;57.51;95830.06;10402344;28;20029;-28
2024/01/04 18:20:56;;;;;;;8.67;2.30;;;;;;;18.47;57.33;95826.63;10394275;28;20176;-30
2024/01/04 18:25:57;;;;;;;8.55;3.78;;;;;;;18.45;57.25;95818.22;10398488;28;20913;-30
2024/01/04 18:30:58;;;;;;;6.95;2.22;;;;;;;18.46;56.87;95817.38;10394348;28;20622;-30
2024/01/04 18:35:58;;;;;;;4.63;1.80;;;;;;;18.44;57.05;95806.41;10397347;28;20175;-30
2024/01/04 18:40:58;;;;;;;5.40;1.90;;;;;;;18.43;56.86;95812.34;10400088;28;20043;-29
2024/01/04 18:45:59;;;;;;;3.42;2.00;;;;;;;18.43;56.28;95815.69;10400289;28;20049;-30
2024/01/04 18:51:01;;;;;;;4.90;2.00;;;;;;;18.44;56.47;95807.28;10401006;28;20048;-29
2024/01/04 18:56:02;;;;;;;3.55;2.20;;;;;;;18.43;56.31;95804.75;10390426;28;20076;-29
2024/01/04 19:01:02;;;;;;;3.53;1.80;;;;;;;18.45;56.17;95803.88;10396540;28;20108;-30
2024/01/04 19:06:03;;;;;;;3.70;2.20;;;;;;;18.49;56.29;95807.19;10393782;28;20045;-30
2024/01/04 19:11:05;;;;;;;6.00;1.75;;;;;;;18.49;56.15;95819.88;10393422;28;20516;-31
2024/01/04 19:16:08;;;;;;;4.72;2.00;;;;;;;18.44;56.40;95801.34;10390982;28;20544;-29
2024/01/04 19:21:08;;;;;;;7.03;2.08;;;;;;;18.48;56.37;95813.09;10395323;28;20041;-29
2024/01/04 19:26:10;;;;;;;5.07;2.25;;;;;;;18.49;56.50;95804.66;10395082;28;20532;-29
2024/01/04 19:31:10;;;;;;;4.22;2.47;;;;;;;18.51;56.36;95802.94;10392430;28;20056;-31
2024/01/04 19:36:11;;;;;;;4.80;1.83;;;;;;;18.51;56.72;95797.88;10385975;28;20047;-30
2024/01/04 19:41:12;;;;;;;7.35;2.85;;;;;;;18.47;56.92;95781.88;10384330;28;20288;-29
2024/01/04 19:46:13;;;;;;;4.57;1.77;;;;;;;18.49;57.06;95774.25;10381484;28;20073;-30
2024/01/04 19:51:13;;;;;;;7.88;2.30;;;;;;;18.48;57.25;95763.25;10391400;28;20045;-29
2024/01/04 19:56:13;;;;;;;3.17;2.10;;;;;;;18.48;57.05;95767.47;10389173;28;20401;-29
2024/01/04 20:01:14;;;;;;;5.43;2.43;;;;;;;18.50;56.96;95756.47;10386652;28;20295;-31
2024/01/04 20:06:14;;;;;;;4.57;2.53;;;;;;;18.48;56.84;95755.66;10395617;28;20040;-29
2024/01/04 20:11:15;;;;;;;8.50;3.77;;;;;;;18.48;57.01;95770.00;10401493;28;20053;-29
2024/01/04 20:16:15;;;;;;;6.93;3.77;;;;;;;18.49;57.09;95774.25;10408832;28;20386;-32
2024/01/04 20:21:15;;;;;;;10.03;4.63;;;;;;;18.44;57.20;95774.31;10396890;28;20682;-29
2024/01/04 20:26:16;;;;;;;11.50;5.00;;;;;;;18.47;57.37;95774.25;10393725;28;20288;-29
2024/01/04 20:31:16;;;;;;;10.00;5.23;;;;;;;18.50;56.83;95773.38;10395304;28;20042;-29
2024/01/04 20:36:16;;;;;;;13.90;6.70;;;;;;;18.44;56.98;95771.78;10383589;28;20038;-29
2024/01/04 20:41:17;;;;;;;14.93;6.77;;;;;;;18.44;56.72;95765.88;10400778;28;20029;-29
2024/01/04 20:46:18;;;;;;;8.85;5.60;;;;;;;18.39;57.39;95757.47;10398864;28;20037;-28
2024/01/04 20:51:20;;;;;;;9.93;5.60;;;;;;;18.37;56.97;95749.06;10398394;28;20033;-29
2024/01/04 20:56:20;;;;;;;12.15;6.70;;;;;;;18.35;56.33;95741.50;10398234;28;20037;-30
2024/01/04 21:01:21;;;;;;;9.77;5.50;;;;;;;18.40;56.62;95746.53;10399103;28;20033;-29
2024/01/04 21:06:21;;;;;;;11.80;6.27;;;;;;;18.42;56.29;95737.19;10396274;28;20297;-33
2024/01/04 21:11:21;;;;;;;12.10;5.67;;;;;;;18.40;56.20;95723.72;10394766;28;20068;-29
2024/01/04 21:16:22;;;;;;;9.97;5.90;;;;;;;18.41;56.67;95726.19;10394154;28;20291;-29
2024/01/04 21:21:22;;;;;;;7.97;4.53;;;;;;;18.41;57.12;95720.31;10391776;28;20041;-29
2024/01/04 21:26:22;;;;;;;13.13;5.00;;;;;;;18.38;57.58;95715.28;10393413;28;20289;-29
2024/01/04 21:31:23;;;;;;;14.50;5.23;;;;;;;18.39;57.31;95711.88;10394460;28;20368;-29
2024/01/04 21:36:24;;;;;;;10.57;4.80;;;;;;;18.37;57.35;95708.53;10386908;28;20034;-29
2024/01/04 21:41:24;;;;;;;9.93;4.65;;;;;;;18.34;57.61;95711.13;10394258;28;20040;-29
2024/01/04 21:46:25;;;;;;;12.97;4.63;;;;;;;18.34;57.69;95708.59;10392420;28;20045;-29
2024/01/04 21:51:25;;;;;;;8.32;4.25;;;;;;;18.35;57.44;95695.06;10396849;28;20303;-29
2024/01/04 21:56:27;;;;;;;11.53;4.40;;;;;;;18.36;56.85;95689.13;10389633;28;20345;-30
2024/01/04 22:01:29;;;;;;;7.55;4.57;;;;;;;18.29;57.07;95669.78;10384384;28;20289;-29
2024/01/04 22:06:30;;;;;;;10.07;3.47;;;;;;;18.27;56.89;95676.56;10392193;28;20405;-29
2024/01/04 22:11:30;;;;;;;7.72;3.90;;;;;;;18.31;57.04;95684.13;10401427;28;20041;-29
2024/01/04 22:16:32;;;;;;;10.07;3.90;;;;;;;18.31;56.97;95674.00;10394183;28;20658;-29
2024/01/04 22:21:33;;;;;;;7.55;3.78;;;;;;;18.30;57.07;95668.94;10391997;28;20041;-29
2024/01/04 22:26:33;;;;;;;10.98;3.85;;;;;;;18.31;57.15;95670.63;10392522;28;20040;-30
2024/01/04 22:31:33;;;;;;;6.90;3.60;;;;;;;18.31;56.88;95663.88;10389733;28;20056;-30
2024/01/04 22:36:34;;;;;;;8.63;4.23;;;;;;;18.32;56.93;95652.88;10395006;28;20804;-29
2024/01/04 22:41:34;;;;;;;6.03;3.07;;;;;;;18.29;56.49;95645.31;10390070;28;20040;-29
2024/01/04 22:46:34;;;;;;;7.67;4.33;;;;;;;18.29;57.10;95639.38;10387321;28;20102;-29
2024/01/04 22:51:37;;;;;;;8.07;4.50;;;;;;;18.27;57.28;95641.09;10385685;28;20041;-29
2024/01/04 22:56:38;;;;;;;6.68;2.95;;;;;;;18.29;57.00;95640.25;10389248;28;20040;-29
2024/01/04 23:01:38;;;;;;;9.83;3.83;;;;;;;18.27;57.29;95625.91;10393120;28;20033;-29
2024/01/04 23:06:38;;;;;;;6.80;3.70;;;;;;;18.25;57.29;95630.97;10390564;28;20087;-29
2024/01/04 23:11:38;;;;;;;7.43;4.03;;;;;;;18.27;57.34;95618.31;10391272;28;20042;-30
2024/01/04 23:16:39;;;;;;;6.43;3.10;;;;;;;18.28;57.18;95622.50;10391768;28;20546;-29